createdAt,value
2018-04-17T00:00:41.776Z,23.33
2018-04-17T00:05:45.554Z,34.13
2018-04-17T00:10:48.508Z,34.47
2018-04-17T00:15:52.519Z,25.20
2018-04-17T00:20:55.501Z,34.43
2018-04-17T00:25:59.137Z,46.17
2018-04-17T00:31:03.384Z,52.47
2018-04-17T00:36:08.019Z,47.13
2018-04-17T00:41:10.854Z,53.50
2018-04-17T00:46:14.210Z,59.30
2018-04-17T00:51:17.003Z,61.53
2018-04-17T00:56:21.099Z,46.20
2018-04-17T01:01:25.857Z,44.00
2018-04-17T01:06:28.962Z,52.27
2018-04-17T01:11:32.247Z,61.60
2018-04-17T01:16:35.307Z,53.37
2018-04-17T01:21:38.166Z,57.50
2018-04-17T01:26:42.646Z,20.27
2018-04-17T01:31:45.841Z,18.93
2018-04-17T01:36:49.883Z,15.93
2018-04-17T01:41:53.208Z,10.40
2018-04-17T01:46:56.600Z,14.70
2018-04-17T01:51:59.476Z,12.63
2018-04-17T01:57:03.007Z,11.30
2018-04-17T02:02:07.215Z,14.03
2018-04-17T02:07:10.790Z,12.37
2018-04-17T02:12:13.907Z,11.23
2018-04-17T02:17:17.778Z,13.53
2018-04-17T02:22:21.672Z,10.03
2018-04-17T02:27:24.640Z,8.80
2018-04-17T02:32:27.464Z,8.30
2018-04-17T02:37:30.265Z,11.50
2018-04-17T02:42:33.999Z,10.23
2018-04-17T02:47:36.963Z,12.23
2018-04-17T02:52:40.392Z,10.03
2018-04-17T02:57:43.435Z,8.60
2018-04-17T03:02:46.424Z,10.20
2018-04-17T03:07:49.180Z,11.87
2018-04-17T03:12:51.965Z,12.30
2018-04-17T03:17:55.544Z,12.30
2018-04-17T03:22:58.378Z,8.63
2018-04-17T03:28:01.915Z,13.57
2018-04-17T03:33:05.567Z,10.40
2018-04-17T03:38:08.341Z,8.37
2018-04-17T03:43:11.111Z,12.97
2018-04-17T03:48:16.424Z,7.60
2018-04-17T03:53:19.206Z,7.80
2018-04-17T03:58:21.964Z,8.50
2018-04-17T04:03:24.952Z,6.67
2018-04-17T04:08:27.711Z,7.17
2018-04-17T04:13:30.487Z,7.87
2018-04-17T04:20:48.693Z,7.13
2018-04-17T04:25:53.971Z,8.27
2018-04-17T04:30:57.704Z,8.70
2018-04-17T04:36:01.126Z,10.87
2018-04-17T04:41:04.208Z,14.53
2018-04-17T04:46:06.981Z,10.50
2018-04-17T04:51:10.102Z,7.47
2018-04-17T04:56:13.012Z,10.43
2018-04-17T05:01:16.007Z,8.90
2018-04-17T05:06:18.762Z,15.53
2018-04-17T05:11:23.179Z,10.27
2018-04-17T05:16:26.102Z,16.47
2018-04-17T05:21:28.947Z,13.20
2018-04-17T05:26:32.150Z,8.13
2018-04-17T05:31:34.962Z,11.00
2018-04-17T05:36:48.755Z,11.60
2018-04-17T05:41:54.099Z,16.13
2018-04-17T05:46:57.460Z,19.80
2018-04-17T05:52:00.750Z,13.47
2018-04-17T05:57:03.792Z,22.30
2018-04-17T06:02:07.524Z,19.17
2018-04-17T06:07:11.233Z,23.03
2018-04-17T06:12:13.975Z,18.00
2018-04-17T06:17:16.997Z,14.87
2018-04-17T06:22:20.078Z,30.00
2018-04-17T06:27:23.108Z,25.70
2018-04-17T06:32:25.959Z,18.80
2018-04-17T06:37:29.222Z,20.17
2018-04-17T06:42:32.267Z,20.87
2018-04-17T06:47:35.656Z,22.63
2018-04-17T06:52:38.936Z,21.80
2018-04-17T06:57:41.711Z,24.90
2018-04-17T07:02:45.124Z,32.77
2018-04-17T07:07:48.323Z,31.70
2018-04-17T07:12:51.515Z,30.07
2018-04-17T07:17:54.266Z,32.67
2018-04-17T07:22:57.272Z,27.00
2018-04-17T07:28:00.988Z,25.43
2018-04-17T07:33:03.747Z,21.83
2018-04-17T07:38:06.602Z,19.50
2018-04-17T07:43:09.787Z,18.37
2018-04-17T07:48:21.548Z,18.27
2018-04-17T07:53:24.930Z,17.37
2018-04-17T07:58:27.736Z,14.80
2018-04-17T08:03:30.474Z,13.60
2018-04-17T08:08:33.285Z,15.33
2018-04-17T08:13:37.541Z,12.60
2018-04-17T08:18:40.306Z,14.07
2018-04-17T08:23:43.371Z,13.47
2018-04-17T08:28:46.148Z,13.57
2018-04-17T08:33:48.915Z,15.77
2018-04-17T08:38:52.674Z,17.60
2018-04-17T08:43:56.214Z,14.47
2018-04-17T08:48:58.714Z,14.43
2018-04-17T08:54:01.468Z,12.70
2018-04-17T08:59:04.246Z,10.23
2018-04-17T09:04:07.324Z,12.40
2018-04-17T09:09:10.210Z,9.80
2018-04-17T09:14:13.162Z,12.57
2018-04-17T09:19:16.725Z,9.23
2018-04-17T09:24:31.035Z,7.43
2018-04-17T09:29:36.543Z,9.07
2018-04-17T09:34:39.535Z,8.87
2018-04-17T09:39:43.692Z,7.70
2018-04-17T09:44:51.777Z,5.87
2018-04-17T09:49:55.607Z,7.37
2018-04-17T09:54:59.511Z,7.07
2018-04-17T10:00:02.354Z,7.53
2018-04-17T10:05:05.143Z,6.27
2018-04-17T10:10:08.210Z,5.27
2018-04-17T10:15:15.124Z,6.00
2018-04-17T10:20:18.475Z,6.47
2018-04-17T10:25:21.328Z,5.33
2018-04-17T10:30:24.188Z,6.12
2018-04-17T10:35:26.927Z,5.60
2018-04-17T10:40:30.058Z,5.50
2018-04-17T10:45:32.819Z,5.40
2018-04-17T10:50:35.571Z,5.93
2018-04-17T10:55:38.427Z,5.33
2018-04-17T11:00:41.201Z,5.83
2018-04-17T11:05:44.017Z,5.80
2018-04-17T11:10:46.799Z,6.03
2018-04-17T11:15:49.850Z,4.67
2018-04-17T11:20:52.804Z,5.77
2018-04-17T11:25:55.602Z,6.27
2018-04-17T11:30:58.439Z,6.03
2018-04-17T11:36:01.284Z,5.10
2018-04-17T11:41:04.143Z,5.07
2018-04-17T11:46:07.215Z,5.87
2018-04-17T11:51:09.997Z,4.83
2018-04-17T11:56:12.808Z,5.17
2018-04-17T12:01:15.539Z,4.40
2018-04-17T12:06:18.445Z,5.80
2018-04-17T12:11:21.231Z,5.70
2018-04-17T12:16:24.330Z,5.23
2018-04-17T12:21:29.355Z,6.03
2018-04-17T12:26:36.710Z,5.40
2018-04-17T12:31:40.092Z,5.23
2018-04-17T12:36:42.877Z,5.10
2018-04-17T12:41:45.877Z,5.30
2018-04-17T12:46:48.655Z,5.03
2018-04-17T12:51:51.424Z,4.83
2018-04-17T12:56:54.468Z,4.23
2018-04-17T13:01:57.230Z,5.20
2018-04-17T13:07:03.377Z,5.50
2018-04-17T13:12:06.851Z,5.33
2018-04-17T13:17:09.631Z,5.57
2018-04-17T13:22:15.755Z,5.67
2018-04-17T13:27:18.620Z,5.60
2018-04-17T13:32:26.080Z,5.93
2018-04-17T13:37:29.620Z,5.70
2018-04-17T13:42:32.703Z,5.53
2018-04-17T13:47:35.491Z,7.70
2018-04-17T13:52:38.658Z,7.30
2018-04-17T13:57:41.694Z,8.40
2018-04-17T14:02:44.516Z,8.30
2018-04-17T14:07:49.839Z,7.27
2018-04-17T14:12:52.631Z,7.10
2018-04-17T14:17:55.421Z,8.63
2018-04-17T14:22:58.743Z,8.13
2018-04-17T14:28:01.529Z,7.40
2018-04-17T14:33:04.380Z,8.90
2018-04-17T14:38:08.601Z,8.40
2018-04-17T14:43:12.182Z,7.20
2018-04-17T14:48:15.202Z,6.10
2018-04-17T14:53:21.391Z,7.47
2018-04-17T14:58:25.115Z,7.37
2018-04-17T15:03:27.918Z,7.70
2018-04-17T15:08:30.696Z,6.43
2018-04-17T15:13:33.488Z,7.17
2018-04-17T15:18:36.610Z,6.37
2018-04-17T15:23:39.428Z,7.00
2018-04-17T15:28:42.248Z,6.63
2018-04-17T15:33:45.014Z,7.33
2018-04-17T15:38:47.512Z,6.60
2018-04-17T15:43:50.914Z,5.83
2018-04-17T15:48:55.151Z,6.77
2018-04-17T15:53:58.034Z,6.40
2018-04-17T15:59:01.322Z,6.77
2018-04-17T16:04:04.828Z,6.73
2018-04-17T16:09:07.998Z,8.43
2018-04-17T16:14:11.173Z,5.63
2018-04-17T16:19:14.497Z,6.30
2018-04-17T16:24:17.504Z,7.00
2018-04-17T16:29:21.138Z,6.93
2018-04-17T16:34:24.293Z,8.20
2018-04-17T16:39:28.227Z,7.87
2018-04-17T16:44:31.387Z,6.00
2018-04-17T16:49:35.071Z,8.40
2018-04-17T16:54:38.935Z,8.57
2018-04-17T16:59:46.334Z,8.40
2018-04-17T17:04:51.049Z,7.73
2018-04-17T17:09:54.003Z,6.90
2018-04-17T17:14:57.081Z,6.67
2018-04-17T17:20:00.109Z,6.37
2018-04-17T17:25:03.497Z,6.17
2018-04-17T17:30:06.574Z,7.90
2018-04-17T17:35:09.741Z,7.80
2018-04-17T17:40:12.790Z,7.40
2018-04-17T17:45:16.159Z,7.07
2018-04-17T17:50:19.343Z,6.10
2018-04-17T17:55:23.052Z,6.87
2018-04-17T18:00:34.497Z,6.60
2018-04-17T18:05:38.614Z,6.73
2018-04-17T18:10:45.221Z,6.50
2018-04-17T18:15:48.742Z,6.67
2018-04-17T18:20:51.871Z,6.30
2018-04-17T18:25:55.026Z,7.10
2018-04-17T18:30:58.165Z,6.00
2018-04-17T18:36:04.210Z,7.13
2018-04-17T18:41:07.350Z,7.03
2018-04-17T18:46:11.466Z,5.47
2018-04-17T18:51:14.784Z,6.80
2018-04-17T18:56:18.031Z,8.23
2018-04-17T19:01:22.027Z,7.30
2018-04-17T19:06:25.289Z,8.60
2018-04-17T19:11:29.759Z,9.00
2018-04-17T19:16:33.919Z,8.33
2018-04-17T19:21:37.150Z,8.60
2018-04-17T19:26:40.333Z,7.83
2018-04-17T19:31:44.424Z,8.00
2018-04-17T19:36:47.592Z,8.30
2018-04-17T19:41:51.666Z,7.73
2018-04-17T19:46:55.994Z,7.90
2018-04-17T19:51:59.286Z,6.60
2018-04-17T19:57:02.750Z,8.30
2018-04-17T20:02:06.027Z,7.90
2018-04-17T20:07:09.268Z,8.30
2018-04-17T20:12:12.545Z,7.00
2018-04-17T20:17:15.879Z,7.73
2018-04-17T20:22:19.026Z,8.27
2018-04-17T20:27:22.805Z,7.77
2018-04-17T20:32:26.364Z,7.27
2018-04-17T20:37:30.433Z,8.23
2018-04-17T20:42:33.552Z,7.73
2018-04-17T20:47:37.096Z,9.53
2018-04-17T20:52:40.287Z,8.50
2018-04-17T20:57:43.528Z,9.73
2018-04-17T21:02:47.165Z,8.50
2018-04-17T21:07:50.454Z,9.53
2018-04-17T21:12:53.657Z,8.70
2018-04-17T21:17:56.963Z,10.40
2018-04-17T21:22:59.868Z,8.73
2018-04-17T21:28:02.724Z,10.13
2018-04-17T21:33:05.730Z,9.83
2018-04-17T21:38:08.556Z,10.50
2018-04-17T21:43:11.446Z,8.70
2018-04-17T21:48:14.910Z,11.00
2018-04-17T21:53:17.718Z,10.00
2018-04-17T21:58:20.547Z,8.17
2018-04-17T22:03:23.560Z,9.50
2018-04-17T22:08:26.342Z,8.20
2018-04-17T22:13:29.143Z,9.60
2018-04-17T22:18:32.317Z,9.07
2018-04-17T22:23:35.200Z,11.90
2018-04-17T22:28:38.114Z,9.77
2018-04-17T22:33:41.018Z,11.77
2018-04-17T22:38:43.864Z,8.90
2018-04-17T22:43:46.752Z,8.80
2018-04-17T22:48:49.703Z,8.67
2018-04-17T22:53:52.528Z,8.23
2018-04-17T22:58:55.397Z,9.13
2018-04-17T23:03:58.380Z,10.00
2018-04-17T23:09:01.139Z,8.80
2018-04-17T23:15:06.978Z,9.00
2018-04-17T23:20:09.950Z,7.97
2018-04-17T23:25:12.731Z,9.00
2018-04-17T23:30:15.785Z,9.17
2018-04-17T23:36:21.819Z,8.37
2018-04-17T23:41:24.575Z,8.30
2018-04-17T23:46:27.604Z,7.93
2018-04-17T23:51:31.039Z,9.30
2018-04-17T23:56:33.905Z,7.53
